Time;durP1;ratioP1;P1;durP2;ratioP2;P2;SDS_P1;SDS_P2;PMS_P1;PMS_P2;Temp;Humidity;BMP_temperature;BMP_pressure;BME280_temperature;BME280_humidity;BME280_pressure;Samples;Min_cycle;Max_cycle;Signal;HPM_P1;HPM_P2
2022/09/27 00:00:11;;;;;;;14.85;13.05;;;;;;;;;;5032230;28;20515;-83
2022/09/27 00:02:37;;;;;;;14.27;13.07;;;;;;;;;;5031816;28;20476;-81
2022/09/27 00:05:03;;;;;;;15.05;13.50;;;;;;;;;;5032943;28;20030;-84
2022/09/27 00:07:29;;;;;;;13.70;12.40;;;;;;;;;;5033012;28;20040;-82
2022/09/27 00:09:55;;;;;;;14.70;13.40;;;;;;;;;;5032627;28;20087;-82
2022/09/27 00:12:21;;;;;;;15.45;14.07;;;;;;;;;;5032927;28;20033;-85
2022/09/27 00:14:47;;;;;;;14.57;13.18;;;;;;;;;;5032873;28;20029;-83
2022/09/27 00:17:13;;;;;;;15.10;13.65;;;;;;;;;;5032832;28;20032;-83
2022/09/27 00:19:40;;;;;;;15.95;14.43;;;;;;;;;;5031569;28;20099;-83
2022/09/27 00:22:06;;;;;;;16.13;14.52;;;;;;;;;;5031349;28;20041;-82
2022/09/27 00:24:32;;;;;;;14.57;13.27;;;;;;;;;;5032611;28;20404;-83
2022/09/27 00:26:58;;;;;;;15.07;13.77;;;;;;;;;;5032507;28;20220;-84
2022/09/27 00:29:24;;;;;;;18.55;15.88;;;;;;;;;;5032671;28;20038;-81
2022/09/27 00:31:51;;;;;;;16.15;14.52;;;;;;;;;;5032586;28;20037;-85
2022/09/27 00:34:21;;;;;;;14.63;13.27;;;;;;;;;;5032495;28;20032;-84
2022/09/27 00:36:47;;;;;;;14.20;12.90;;;;;;;;;;5032591;28;20036;-80
2022/09/27 00:39:14;;;;;;;15.70;14.38;;;;;;;;;;5031187;28;20073;-83
2022/09/27 00:41:41;;;;;;;16.23;14.73;;;;;;;;;;5031356;28;20167;-83
2022/09/27 00:44:25;;;;;;;14.45;13.07;;;;;;;;;;5032286;28;20026;-81
2022/09/27 00:47:02;;;;;;;15.40;14.00;;;;;;;;;;5032392;28;20472;-82
2022/09/27 00:49:34;;;;;;;14.73;13.60;;;;;;;;;;5031981;28;20396;-83
2022/09/27 00:52:12;;;;;;;15.32;13.93;;;;;;;;;;5032488;28;20036;-81
2022/09/27 00:54:41;;;;;;;15.20;13.90;;;;;;;;;;5031045;28;20055;-80
2022/09/27 00:57:08;;;;;;;14.98;13.52;;;;;;;;;;5032385;28;20037;-82
2022/09/27 00:59:54;;;;;;;15.88;14.32;;;;;;;;;;5032138;28;20045;-84
2022/09/27 01:02:20;;;;;;;16.25;14.75;;;;;;;;;;5014399;28;20489;-83
2022/09/27 01:04:46;;;;;;;15.95;14.52;;;;;;;;;;5032335;28;20037;-85
2022/09/27 01:07:13;;;;;;;16.25;14.73;;;;;;;;;;5032071;28;20045;-84
2022/09/27 01:09:39;;;;;;;16.02;14.75;;;;;;;;;;5031105;28;20485;-86
2022/09/27 01:12:08;;;;;;;17.40;15.80;;;;;;;;;;5033665;28;20061;-85
2022/09/27 01:14:58;;;;;;;17.02;15.55;;;;;;;;;;5036044;28;20029;-84
2022/09/27 01:17:43;;;;;;;18.63;16.83;;;;;;;;;;5016940;28;20436;-82
2022/09/27 01:20:11;;;;;;;17.17;15.60;;;;;;;;;;5036092;28;20029;-81
2022/09/27 01:22:56;;;;;;;16.70;15.02;;;;;;;;;;5035707;28;20029;-81
2022/09/27 01:25:38;;;;;;;18.20;16.60;;;;;;;;;;5035658;28;20096;-83
2022/09/27 01:28:25;;;;;;;17.20;15.70;;;;;;;;;;5035631;28;20045;-82
2022/09/27 01:31:10;;;;;;;19.58;17.88;;;;;;;;;;5035739;28;20030;-84
2022/09/27 01:33:38;;;;;;;18.42;16.75;;;;;;;;;;5035573;28;20491;-85
2022/09/27 01:36:24;;;;;;;18.20;16.70;;;;;;;;;;5035850;28;20087;-83
2022/09/27 01:39:08;;;;;;;17.98;16.38;;;;;;;;;;5034451;28;20037;-82
2022/09/27 01:41:34;;;;;;;17.08;15.57;;;;;;;;;;5035652;28;20033;-84
2022/09/27 01:44:04;;;;;;;17.10;15.50;;;;;;;;;;5035575;28;20030;-82
2022/09/27 01:46:39;;;;;;;16.33;14.93;;;;;;;;;;5035636;28;20038;-81
2022/09/27 01:49:10;;;;;;;18.95;17.13;;;;;;;;;;5035295;28;20045;-83
2022/09/27 01:51:43;;;;;;;19.05;17.35;;;;;;;;;;5035378;28;20119;-82
2022/09/27 01:54:11;;;;;;;18.83;16.92;;;;;;;;;;5035320;28;20034;-84
2022/09/27 01:56:40;;;;;;;18.80;17.08;;;;;;;;;;5035332;28;20029;-80
2022/09/27 01:59:19;;;;;;;19.25;17.45;;;;;;;;;;5035303;28;20033;-83
2022/09/27 02:01:48;;;;;;;19.23;17.35;;;;;;;;;;5035103;28;20040;-83
2022/09/27 02:04:17;;;;;;;18.48;16.83;;;;;;;;;;5035382;28;20112;-82
2022/09/27 02:06:45;;;;;;;19.30;17.40;;;;;;;;;;5033767;28;20603;-81
2022/09/27 02:09:11;;;;;;;19.08;16.67;;;;;;;;;;5035293;28;20038;-83
2022/09/27 02:11:40;;;;;;;19.25;17.65;;;;;;;;;;5035031;28;20160;-84
2022/09/27 02:14:10;;;;;;;20.45;18.67;;;;;;;;;;5035176;28;20040;-82
2022/09/27 02:16:52;;;;;;;21.23;19.33;;;;;;;;;;5034861;28;20034;-82
2022/09/27 02:19:37;;;;;;;19.00;17.30;;;;;;;;;;5034795;28;20065;-82
2022/09/27 02:22:03;;;;;;;;;;;;;;;;;;5035261;28;20033;-80
2022/09/27 02:24:38;;;;;;;19.33;17.50;;;;;;;;;;5033793;28;19912;-82
2022/09/27 02:27:10;;;;;;;17.77;16.17;;;;;;;;;;5034680;28;20493;-81
2022/09/27 02:29:44;;;;;;;18.73;17.08;;;;;;;;;;5034602;28;20038;-80
2022/09/27 02:32:11;;;;;;;18.23;16.55;;;;;;;;;;5034991;28;20100;-80
2022/09/27 02:34:38;;;;;;;18.88;17.17;;;;;;;;;;5034668;28;20041;-82
2022/09/27 02:37:04;;;;;;;19.55;17.75;;;;;;;;;;5034582;28;20032;-85
2022/09/27 02:39:30;;;;;;;19.00;17.13;;;;;;;;;;5034524;28;20034;-80
2022/09/27 02:41:58;;;;;;;19.15;17.35;;;;;;;;;;5034337;28;20111;-84
2022/09/27 02:44:24;;;;;;;18.73;17.02;;;;;;;;;;5034536;28;20034;-80
2022/09/27 02:47:11;;;;;;;18.58;16.85;;;;;;;;;;5034413;28;20477;-85
2022/09/27 02:49:40;;;;;;;19.83;18.13;;;;;;;;;;5032685;28;20041;-83
2022/09/27 02:52:12;;;;;;;19.73;18.02;;;;;;;;;;5033092;28;20025;-81
2022/09/27 02:54:57;;;;;;;21.08;19.08;;;;;;;;;;5034223;28;20034;-84
2022/09/27 02:57:42;;;;;;;20.90;19.08;;;;;;;;;;5032806;28;20503;-83
2022/09/27 03:00:15;;;;;;;22.13;20.23;;;;;;;;;;5034019;28;20045;-82
2022/09/27 03:02:47;;;;;;;20.48;18.67;;;;;;;;;;5033002;28;20045;-81
2022/09/27 03:05:22;;;;;;;19.23;17.40;;;;;;;;;;5034176;28;20079;-82
2022/09/27 03:07:48;;;;;;;21.55;19.65;;;;;;;;;;5033934;28;20112;-84
2022/09/27 03:10:19;;;;;;;20.75;18.85;;;;;;;;;;5034177;28;20425;-82
2022/09/27 03:12:45;;;;;;;21.65;19.58;;;;;;;;;;5033747;28;20053;-80
2022/09/27 03:15:12;;;;;;;21.45;19.50;;;;;;;;;;5033989;28;20030;-83
2022/09/27 03:17:38;;;;;;;23.60;21.30;;;;;;;;;;5033621;28;20026;-81
2022/09/27 03:20:05;;;;;;;21.55;19.58;;;;;;;;;;5033790;28;20025;-80
2022/09/27 03:22:32;;;;;;;20.48;18.67;;;;;;;;;;5033781;28;20033;-80
2022/09/27 03:24:58;;;;;;;20.25;18.38;;;;;;;;;;5033516;28;20477;-82
2022/09/27 03:27:24;;;;;;;20.48;18.55;;;;;;;;;;5033783;28;20053;-83
2022/09/27 03:29:50;;;;;;;20.30;18.52;;;;;;;;;;5033389;28;20440;-82
2022/09/27 03:32:17;;;;;;;20.60;18.70;;;;;;;;;;5033597;28;20065;-81
2022/09/27 03:34:43;;;;;;;18.55;16.80;;;;;;;;;;5033000;28;20500;-81
2022/09/27 03:37:09;;;;;;;20.17;18.33;;;;;;;;;;5033524;28;20112;-85
2022/09/27 03:39:36;;;;;;;20.52;18.77;;;;;;;;;;5033287;28;20451;-81
2022/09/27 03:42:02;;;;;;;21.05;19.08;;;;;;;;;;5033290;28;20061;-81
2022/09/27 03:44:28;;;;;;;19.45;17.65;;;;;;;;;;5032908;28;20037;-84
2022/09/27 03:46:54;;;;;;;19.92;18.17;;;;;;;;;;5033160;28;20029;-83
2022/09/27 03:49:20;;;;;;;20.67;18.80;;;;;;;;;;5033203;28;20034;-83
2022/09/27 03:51:46;;;;;;;20.13;17.98;;;;;;;;;;5032902;28;20057;-85
2022/09/27 03:54:12;;;;;;;21.60;18.73;;;;;;;;;;5031890;28;20504;-81
2022/09/27 03:56:41;;;;;;;20.17;18.13;;;;;;;;;;5032740;28;20495;-81
2022/09/27 03:59:08;;;;;;;20.88;18.98;;;;;;;;;;5032376;28;20083;-83
2022/09/27 04:01:36;;;;;;;19.20;17.50;;;;;;;;;;5032843;28;20037;-84
2022/09/27 04:04:02;;;;;;;22.13;20.02;;;;;;;;;;5032804;28;20033;-84
2022/09/27 04:06:28;;;;;;;24.80;22.25;;;;;;;;;;5032921;28;20029;-82
2022/09/27 04:08:55;;;;;;;21.95;19.83;;;;;;;;;;5032171;28;20034;-81
2022/09/27 04:11:24;;;;;;;21.15;19.25;;;;;;;;;;5041071;28;20025;-84
2022/09/27 04:13:52;;;;;;;25.92;23.33;;;;;;;;;;5031532;28;20057;-83
2022/09/27 04:16:19;;;;;;;31.05;27.98;;;;;;;;;;5032694;28;20034;-87
2022/09/27 04:18:57;;;;;;;26.05;23.58;;;;;;;;;;5032881;28;20041;-86
2022/09/27 04:21:23;;;;;;;29.38;26.67;;;;;;;;;;5032667;28;20044;-82
2022/09/27 04:23:50;;;;;;;29.08;26.45;;;;;;;;;;5032652;28;20051;-87
2022/09/27 04:26:16;;;;;;;22.13;19.80;;;;;;;;;;5032682;28;20072;-86
2022/09/27 04:28:42;;;;;;;29.58;26.80;;;;;;;;;;5032611;28;20043;-85
2022/09/27 04:31:08;;;;;;;38.55;35.03;;;;;;;;;;5032423;28;20061;-84
2022/09/27 04:33:34;;;;;;;40.55;36.42;;;;;;;;;;5032740;28;20029;-81
2022/09/27 04:38:45;;;;;;;23.92;21.70;;;;;;;;;;5012619;28;20049;-81
2022/09/27 04:41:11;;;;;;;24.05;21.77;;;;;;;;;;5012915;28;20448;-81
2022/09/27 04:43:37;;;;;;;26.73;24.15;;;;;;;;;;5012675;28;20034;-82
2022/09/27 04:46:03;;;;;;;26.27;23.83;;;;;;;;;;5013814;28;20501;-81
2022/09/27 04:48:29;;;;;;;27.85;25.33;;;;;;;;;;5019264;28;20038;-82
2022/09/27 04:51:01;;;;;;;27.15;24.73;;;;;;;;;;5018445;28;20061;-83
2022/09/27 04:53:28;;;;;;;27.95;25.35;;;;;;;;;;5038932;28;20036;-82
2022/09/27 04:55:55;;;;;;;25.80;23.40;;;;;;;;;;5038939;28;20083;-83
2022/09/27 04:58:21;;;;;;;28.60;25.50;;;;;;;;;;5039014;28;20409;-83
2022/09/27 05:00:51;;;;;;;25.77;23.25;;;;;;;;;;5038813;28;20030;-82
2022/09/27 05:03:18;;;;;;;26.98;24.42;;;;;;;;;;5038938;28;20052;-83
2022/09/27 05:05:44;;;;;;;25.42;23.13;;;;;;;;;;5038670;28;20025;-83
2022/09/27 05:08:10;;;;;;;25.13;22.85;;;;;;;;;;5038664;28;20119;-82
2022/09/27 05:10:36;;;;;;;26.88;24.48;;;;;;;;;;5038116;28;20026;-82
2022/09/27 05:13:03;;;;;;;31.10;28.15;;;;;;;;;;5038479;28;20242;-83
2022/09/27 05:15:29;;;;;;;31.73;28.63;;;;;;;;;;5037223;28;20041;-82
2022/09/27 05:17:57;;;;;;;31.83;28.70;;;;;;;;;;5038652;28;20041;-81
2022/09/27 05:20:24;;;;;;;30.90;28.05;;;;;;;;;;5038480;28;20037;-81
2022/09/27 05:22:50;;;;;;;27.58;25.08;;;;;;;;;;5038323;28;20480;-82
2022/09/27 06:09:58;;;;;;;27.85;25.20;;;;;;;;;;5005310;28;20484;-82
2022/09/27 06:12:24;;;;;;;26.98;24.38;;;;;;;;;;5009804;28;20049;-82
2022/09/27 06:14:50;;;;;;;23.13;20.92;;;;;;;;;;5013352;28;20030;-83
2022/09/27 06:17:16;;;;;;;21.13;19.20;;;;;;;;;;5013223;28;20030;-82
2022/09/27 06:19:43;;;;;;;19.92;18.00;;;;;;;;;;5011416;28;20033;-82
2022/09/27 06:22:09;;;;;;;19.55;17.65;;;;;;;;;;5013814;28;20064;-82
2022/09/27 06:24:35;;;;;;;21.77;19.83;;;;;;;;;;5013496;28;20061;-81
2022/09/27 06:27:01;;;;;;;18.58;16.98;;;;;;;;;;5013624;28;20500;-82
2022/09/27 06:29:28;;;;;;;18.88;17.20;;;;;;;;;;4994675;28;20046;-81
2022/09/27 06:31:56;;;;;;;18.17;16.58;;;;;;;;;;4997992;28;20040;-83
2022/09/27 06:34:22;;;;;;;18.35;16.60;;;;;;;;;;4996307;28;20044;-83
2022/09/27 06:36:49;;;;;;;16.05;14.65;;;;;;;;;;5013580;28;20033;-83
2022/09/27 06:39:15;;;;;;;16.27;14.77;;;;;;;;;;5013036;28;20599;-82
2022/09/27 06:41:43;;;;;;;17.35;15.65;;;;;;;;;;5012568;28;20042;-83
2022/09/27 06:44:10;;;;;;;17.13;15.52;;;;;;;;;;5013800;28;20155;-83
2022/09/27 06:46:37;;;;;;;16.15;14.60;;;;;;;;;;4994991;28;20038;-83
2022/09/27 06:49:03;;;;;;;15.90;14.13;;;;;;;;;;4994537;28;20034;-82
2022/09/27 06:51:29;;;;;;;40.03;21.35;;;;;;;;;;5007272;28;20042;-84
2022/09/27 06:53:55;;;;;;;162.90;52.25;;;;;;;;;;5030976;28;20129;-84
2022/09/27 06:56:21;;;;;;;238.25;71.30;;;;;;;;;;5025383;28;20112;-86
2022/09/27 07:01:32;;;;;;;131.82;42.13;;;;;;;;;;5013293;28;20798;-84
2022/09/27 07:03:58;;;;;;;84.38;30.33;;;;;;;;;;5011229;28;20108;-86
2022/09/27 07:06:25;;;;;;;33.20;18.50;;;;;;;;;;5011177;28;20065;-83
2022/09/27 07:08:51;;;;;;;30.83;15.57;;;;;;;;;;5011960;28;20054;-81
2022/09/27 07:11:18;;;;;;;16.27;11.60;;;;;;;;;;5004412;28;20480;-83
2022/09/27 07:13:44;;;;;;;16.10;12.63;;;;;;;;;;5011148;28;20120;-81
2022/09/27 07:16:13;;;;;;;14.80;12.15;;;;;;;;;;5009136;28;20092;-85
2022/09/27 07:18:58;;;;;;;15.70;13.32;;;;;;;;;;5011365;28;20045;-78
2022/09/27 07:21:24;;;;;;;12.32;11.13;;;;;;;;;;5011524;28;20104;-86
2022/09/27 07:23:50;;;;;;;13.45;12.18;;;;;;;;;;4987699;28;20456;-87
2022/09/27 07:26:16;;;;;;;13.98;12.73;;;;;;;;;;4990824;28;20046;-84
2022/09/27 07:28:48;;;;;;;12.57;11.30;;;;;;;;;;5010546;28;20049;-85
2022/09/27 07:31:15;;;;;;;13.05;11.90;;;;;;;;;;5007800;28;20041;-83
2022/09/27 07:33:42;;;;;;;12.02;10.93;;;;;;;;;;5010604;28;20045;-81
2022/09/27 07:36:11;;;;;;;11.90;10.90;;;;;;;;;;5010873;28;20086;-82
2022/09/27 07:38:37;;;;;;;11.98;10.82;;;;;;;;;;5011998;28;20049;-81
2022/09/27 07:41:07;;;;;;;13.10;11.90;;;;;;;;;;5012396;28;20491;-83
2022/09/27 07:43:33;;;;;;;11.40;10.40;;;;;;;;;;5011507;28;20091;-83
2022/09/27 07:45:59;;;;;;;17.45;11.68;;;;;;;;;;5010033;28;20038;-81
2022/09/27 07:48:25;;;;;;;38.05;17.63;;;;;;;;;;5020785;28;20040;-83
2022/09/27 07:50:52;;;;;;;56.97;21.58;;;;;;;;;;5024369;28;20033;-82
2022/09/27 07:53:18;;;;;;;59.00;23.83;;;;;;;;;;5027752;28;20052;-81
2022/09/27 07:55:49;;;;;;;236.68;70.47;;;;;;;;;;5031175;28;20041;-81
2022/09/27 07:58:15;;;;;;;215.50;67.80;;;;;;;;;;5021002;28;20496;-84
2022/09/27 08:00:41;;;;;;;233.38;72.07;;;;;;;;;;5010961;28;20127;-81
2022/09/27 08:03:08;;;;;;;223.27;67.43;;;;;;;;;;5012040;28;20038;-81
2022/09/27 08:05:35;;;;;;;26.85;16.52;;;;;;;;;;5011905;28;20080;-83
2022/09/27 08:08:01;;;;;;;76.53;27.10;;;;;;;;;;5011459;28;20034;-83
2022/09/27 08:10:30;;;;;;;217.27;67.00;;;;;;;;;;4993706;28;20052;-82
2022/09/27 08:12:57;;;;;;;284.13;90.55;;;;;;;;;;5011244;28;20523;-83
2022/09/27 08:15:23;;;;;;;123.53;41.08;;;;;;;;;;5011671;28;20038;-88
2022/09/27 08:17:49;;;;;;;149.75;48.72;;;;;;;;;;5011154;28;20061;-84
2022/09/27 08:20:16;;;;;;;174.15;58.85;;;;;;;;;;5011842;28;20034;-82
2022/09/27 08:22:43;;;;;;;140.18;45.58;;;;;;;;;;5009789;28;20049;-82
2022/09/27 08:25:09;;;;;;;120.18;39.00;;;;;;;;;;5011686;28;20488;-82
2022/09/27 08:27:35;;;;;;;168.70;56.90;;;;;;;;;;5011499;28;20125;-82
2022/09/27 08:30:02;;;;;;;132.18;44.22;;;;;;;;;;5011221;28;20049;-82
2022/09/27 08:32:29;;;;;;;18.00;13.05;;;;;;;;;;5011306;28;20116;-82
2022/09/27 08:34:55;;;;;;;24.25;13.23;;;;;;;;;;5011373;28;20492;-81
2022/09/27 08:37:22;;;;;;;13.55;9.93;;;;;;;;;;5010983;28;20033;-81
2022/09/27 08:39:48;;;;;;;74.10;28.10;;;;;;;;;;5018794;28;20041;-81
2022/09/27 08:42:21;;;;;;;29.98;14.30;;;;;;;;;;5031174;28;20050;-80
2022/09/27 08:44:56;;;;;;;82.05;30.33;;;;;;;;;;5012910;28;20563;-83
2022/09/27 08:47:23;;;;;;;62.15;23.23;;;;;;;;;;4995016;28;20044;-82
2022/09/27 08:49:53;;;;;;;23.83;13.18;;;;;;;;;;5030908;28;20558;-80
2022/09/27 08:52:22;;;;;;;40.28;17.52;;;;;;;;;;5007610;28;20033;-82
2022/09/27 08:54:50;;;;;;;8.57;7.45;;;;;;;;;;5017158;28;20046;-83
2022/09/27 08:57:16;;;;;;;8.20;6.53;;;;;;;;;;4992294;28;20041;-82
2022/09/27 09:00:06;;;;;;;7.80;7.10;;;;;;;;;;5009191;28;20038;-83
2022/09/27 09:02:33;;;;;;;7.45;6.75;;;;;;;;;;4995393;28;20053;-83
2022/09/27 09:05:05;;;;;;;17.30;9.75;;;;;;;;;;5010670;28;20045;-84
2022/09/27 09:07:37;;;;;;;10.82;8.27;;;;;;;;;;5010168;28;20038;-82
2022/09/27 09:13:13;;;;;;;8.55;7.65;;;;;;;;;;5010013;28;20567;-83
2022/09/27 09:15:58;;;;;;;12.55;8.93;;;;;;;;;;5009497;28;20040;-83
2022/09/27 09:18:43;;;;;;;13.48;9.48;;;;;;;;;;4989768;28;20039;-83
2022/09/27 09:21:09;;;;;;;15.23;12.77;;;;;;;;;;5008175;28;20037;-79
2022/09/27 09:23:54;;;;;;;7.07;6.47;;;;;;;;;;5010304;28;20133;-79
2022/09/27 09:26:37;;;;;;;6.63;6.03;;;;;;;;;;5008865;28;20030;-80
2022/09/27 09:29:13;;;;;;;6.75;6.15;;;;;;;;;;5008779;28;20046;-81
2022/09/27 09:31:58;;;;;;;6.30;5.68;;;;;;;;;;5008274;28;20555;-79
2022/09/27 09:34:43;;;;;;;8.07;7.30;;;;;;;;;;4993854;28;20058;-81
2022/09/27 09:37:31;;;;;;;8.65;7.78;;;;;;;;;;5011908;28;20808;-79
2022/09/27 09:39:57;;;;;;;8.40;6.63;;;;;;;;;;5012329;28;20038;-79
2022/09/27 09:42:35;;;;;;;10.98;6.38;;;;;;;;;;4993987;28;20029;-81
2022/09/27 09:45:05;;;;;;;25.83;11.50;;;;;;;;;;5009122;28;20072;-79
2022/09/27 09:47:31;;;;;;;10.88;7.10;;;;;;;;;;5014738;28;20120;-81
2022/09/27 09:50:02;;;;;;;12.93;7.03;;;;;;;;;;5005565;28;20046;-81
2022/09/27 09:52:34;;;;;;;12.50;6.45;;;;;;;;;;5007656;28;20034;-80
2022/09/27 09:55:06;;;;;;;8.15;5.45;;;;;;;;;;5005309;28;20038;-84
2022/09/27 09:57:33;;;;;;;12.05;6.55;;;;;;;;;;5009213;28;20125;-84
2022/09/27 10:00:00;;;;;;;12.02;6.57;;;;;;;;;;5013691;28;20108;-79
2022/09/27 10:02:27;;;;;;;7.97;5.57;;;;;;;;;;4999646;28;20496;-81
2022/09/27 10:04:53;;;;;;;11.85;4.45;;;;;;;;;;4992067;28;20060;-79
2022/09/27 10:07:22;;;;;;;10.15;5.47;;;;;;;;;;5012429;28;20034;-82
2022/09/27 10:09:49;;;;;;;7.32;4.35;;;;;;;;;;5008860;28;20500;-81
2022/09/27 10:12:15;;;;;;;6.82;5.07;;;;;;;;;;5007947;28;20062;-80
2022/09/27 10:14:44;;;;;;;7.47;4.60;;;;;;;;;;5010881;28;20069;-80
2022/09/27 10:17:13;;;;;;;6.93;4.97;;;;;;;;;;5010780;28;20110;-81
2022/09/27 10:19:41;;;;;;;5.63;3.50;;;;;;;;;;4995742;28;20038;-80
2022/09/27 10:22:10;;;;;;;5.97;3.65;;;;;;;;;;4995445;28;20030;-80
2022/09/27 10:24:54;;;;;;;6.22;3.95;;;;;;;;;;5010802;28;20050;-79
2022/09/27 10:27:20;;;;;;;7.43;6.63;;;;;;;;;;4988782;28;20437;-82
2022/09/27 10:29:46;;;;;;;6.03;4.10;;;;;;;;;;5009202;28;20057;-79
2022/09/27 10:32:21;;;;;;;3.88;3.03;;;;;;;;;;5009140;28;20041;-81
2022/09/27 10:34:48;;;;;;;4.82;3.50;;;;;;;;;;5003833;28;20030;-80
2022/09/27 10:37:32;;;;;;;6.57;3.75;;;;;;;;;;5009899;28;20104;-78
2022/09/27 10:39:58;;;;;;;3.17;2.88;;;;;;;;;;5012136;28;20034;-81
2022/09/27 10:42:37;;;;;;;3.85;2.65;;;;;;;;;;5012717;28;20038;-79
2022/09/27 10:45:22;;;;;;;4.30;2.75;;;;;;;;;;5013564;28;20112;-80
2022/09/27 10:47:51;;;;;;;4.15;3.53;;;;;;;;;;5008841;28;20096;-80
2022/09/27 10:50:27;;;;;;;3.30;2.78;;;;;;;;;;5009443;28;20043;-81
2022/09/27 10:53:13;;;;;;;3.72;3.25;;;;;;;;;;5012532;28;20033;-84
2022/09/27 10:55:40;;;;;;;5.05;2.90;;;;;;;;;;5010848;28;20041;-80
2022/09/27 10:58:07;;;;;;;3.08;2.83;;;;;;;;;;5009917;28;20045;-81
2022/09/27 11:00:34;;;;;;;5.68;4.07;;;;;;;;;;5010860;28;20045;-80
2022/09/27 11:03:06;;;;;;;4.13;3.72;;;;;;;;;;5009543;28;20046;-80
2022/09/27 11:05:34;;;;;;;6.28;4.53;;;;;;;;;;5008655;28;20044;-78
2022/09/27 11:08:25;;;;;;;4.93;3.92;;;;;;;;;;5009850;28;20481;-78
2022/09/27 11:11:00;;;;;;;4.97;3.42;;;;;;;;;;5002716;28;20089;-79
2022/09/27 11:13:31;;;;;;;2.72;2.45;;;;;;;;;;4989292;28;20115;-79
2022/09/27 11:16:03;;;;;;;4.18;3.50;;;;;;;;;;4992286;28;20046;-80
2022/09/27 11:18:29;;;;;;;4.32;3.30;;;;;;;;;;4992026;28;20037;-80
2022/09/27 11:21:07;;;;;;;3.83;3.33;;;;;;;;;;4990692;28;20039;-78
2022/09/27 11:23:36;;;;;;;4.22;3.05;;;;;;;;;;4983237;28;20555;-80
2022/09/27 11:26:09;;;;;;;4.65;2.92;;;;;;;;;;4993116;28;20058;-80
2022/09/27 11:28:35;;;;;;;3.17;2.88;;;;;;;;;;4991145;28;20085;-80
2022/09/27 11:31:20;;;;;;;4.75;3.30;;;;;;;;;;4989260;28;20031;-79
2022/09/27 11:33:49;;;;;;;3.88;3.40;;;;;;;;;;4990397;28;20124;-80
2022/09/27 11:36:16;;;;;;;5.60;3.17;;;;;;;;;;4990799;28;20388;-81
2022/09/27 11:38:48;;;;;;;10.93;4.60;;;;;;;;;;4991659;28;20053;-79
2022/09/27 11:41:28;;;;;;;15.50;6.22;;;;;;;;;;4989940;28;20042;-80
2022/09/27 11:44:14;;;;;;;5.43;2.88;;;;;;;;;;4989264;28;20515;-80
2022/09/27 11:46:41;;;;;;;18.75;6.88;;;;;;;;;;4990843;28;20038;-81
2022/09/27 11:49:19;;;;;;;11.88;4.60;;;;;;;;;;4977704;28;20054;-83
2022/09/27 11:51:45;;;;;;;11.52;4.53;;;;;;;;;;4987942;28;20104;-80
2022/09/27 11:54:17;;;;;;;8.32;3.90;;;;;;;;;;4991460;28;20050;-79
2022/09/27 11:56:48;;;;;;;7.22;3.35;;;;;;;;;;4991262;28;20038;-78
2022/09/27 11:59:33;;;;;;;26.67;9.02;;;;;;;;;;4995057;28;20173;-80
2022/09/27 12:02:18;;;;;;;90.32;29.48;;;;;;;;;;4994304;28;20034;-81
2022/09/27 12:05:00;;;;;;;65.07;21.77;;;;;;;;;;4989156;28;20050;-80
2022/09/27 12:07:59;;;;;;;77.15;24.48;;;;;;;;;;4990795;28;20049;-80
2022/09/27 12:10:25;;;;;;;27.77;10.25;;;;;;;;;;4991995;28;20049;-80
2022/09/27 12:12:53;;;;;;;18.73;6.43;;;;;;;;;;5012742;28;20053;-80
2022/09/27 12:15:19;;;;;;;7.75;4.10;;;;;;;;;;5009339;28;20535;-80
2022/09/27 12:17:46;;;;;;;10.40;4.95;;;;;;;;;;5010206;28;20041;-81
2022/09/27 12:20:23;;;;;;;5.88;3.25;;;;;;;;;;5011889;28;20061;-81
2022/09/27 12:23:08;;;;;;;9.20;4.10;;;;;;;;;;5006706;28;20042;-80
2022/09/27 12:25:36;;;;;;;5.10;3.42;;;;;;;;;;5007554;28;20034;-82
2022/09/27 12:28:28;;;;;;;36.28;27.90;;;;;;;;;;5011261;28;20096;-80
2022/09/27 12:30:58;;;;;;;6.82;5.15;;;;;;;;;;5007704;28;20045;-80
2022/09/27 12:33:35;;;;;;;8.70;7.55;;;;;;;;;;5010634;28;20507;-80
2022/09/27 12:36:05;;;;;;;5.88;4.57;;;;;;;;;;5010923;28;20131;-79
2022/09/27 12:38:34;;;;;;;5.22;4.00;;;;;;;;;;5007602;28;20042;-80
2022/09/27 12:41:01;;;;;;;5.57;3.83;;;;;;;;;;5011413;28;20042;-83
2022/09/27 12:43:30;;;;;;;14.35;11.02;;;;;;;;;;5009476;28;20038;-81
2022/09/27 12:45:57;;;;;;;9.20;7.22;;;;;;;;;;5009695;28;20116;-82
2022/09/27 12:48:42;;;;;;;23.30;13.73;;;;;;;;;;4992134;28;20038;-84
2022/09/27 12:51:09;;;;;;;13.63;5.03;;;;;;;;;;5008548;28;20081;-83
2022/09/27 12:53:54;;;;;;;27.88;11.25;;;;;;;;;;5008411;28;20137;-81
2022/09/27 12:56:23;;;;;;;14.48;6.10;;;;;;;;;;5006918;28;20716;-80
2022/09/27 12:58:56;;;;;;;10.02;4.10;;;;;;;;;;5008910;28;20033;-79
2022/09/27 13:01:40;;;;;;;9.27;4.65;;;;;;;;;;5010949;28;20029;-79
2022/09/27 13:04:26;;;;;;;10.40;4.95;;;;;;;;;;5009949;28;20034;-80
2022/09/27 13:06:52;;;;;;;3.78;2.70;;;;;;;;;;5011410;28;20045;-80
2022/09/27 13:09:24;;;;;;;5.47;3.47;;;;;;;;;;5012807;28;20061;-80
2022/09/27 13:11:57;;;;;;;5.85;3.58;;;;;;;;;;5015887;28;20050;-79
2022/09/27 13:14:28;;;;;;;3.25;2.80;;;;;;;;;;5014793;28;20128;-79
2022/09/27 13:16:54;;;;;;;4.10;2.75;;;;;;;;;;5016078;28;20034;-81
2022/09/27 13:19:35;;;;;;;5.35;3.10;;;;;;;;;;5015859;28;20092;-80
2022/09/27 13:22:03;;;;;;;3.22;2.15;;;;;;;;;;5016045;28;20073;-82
2022/09/27 13:24:48;;;;;;;4.30;1.80;;;;;;;;;;5015957;28;20030;-81
2022/09/27 13:27:33;;;;;;;2.65;1.30;;;;;;;;;;5014680;28;20061;-80
2022/09/27 13:30:08;;;;;;;3.95;1.90;;;;;;;;;;4998280;28;20088;-82
2022/09/27 13:32:35;;;;;;;3.05;2.15;;;;;;;;;;5015312;28;20395;-81
2022/09/27 13:35:20;;;;;;;3.05;2.45;;;;;;;;;;5016079;28;20476;-81
2022/09/27 13:37:47;;;;;;;2.42;2.10;;;;;;;;;;5015467;28;20515;-82
2022/09/27 13:40:14;;;;;;;2.67;2.20;;;;;;;;;;5015416;28;20066;-84
2022/09/27 13:42:48;;;;;;;4.22;2.67;;;;;;;;;;4997652;28;20034;-81
2022/09/27 13:45:20;;;;;;;4.70;2.67;;;;;;;;;;5015538;28;20096;-84
2022/09/27 13:47:47;;;;;;;4.07;2.50;;;;;;;;;;5015191;28;20046;-84
2022/09/27 13:50:13;;;;;;;3.20;1.67;;;;;;;;;;5015073;28;20096;-85
2022/09/27 13:52:43;;;;;;;2.60;1.65;;;;;;;;;;4998899;28;20034;-84
2022/09/27 13:55:27;;;;;;;3.90;1.90;;;;;;;;;;5015031;28;20042;-84
2022/09/27 13:57:57;;;;;;;1.70;1.45;;;;;;;;;;5015282;28;20080;-84
2022/09/27 14:00:25;;;;;;;3.08;2.22;;;;;;;;;;5015109;28;20535;-84
2022/09/27 14:02:51;;;;;;;21.10;15.88;;;;;;;;;;5014993;28;20045;-84
2022/09/27 14:05:20;;;;;;;4.55;3.00;;;;;;;;;;5015309;28;20087;-84
2022/09/27 14:07:48;;;;;;;7.07;5.85;;;;;;;;;;5014967;28;20515;-83
2022/09/27 14:10:17;;;;;;;10.10;7.22;;;;;;;;;;5014929;28;20180;-83
2022/09/27 14:12:43;;;;;;;2.67;2.20;;;;;;;;;;5014639;28;20092;-80
2022/09/27 14:15:18;;;;;;;2.42;1.63;;;;;;;;;;5014941;28;20481;-81
2022/09/27 14:17:44;;;;;;;;;;;;;;;;;;5012134;28;20049;-81
2022/09/27 14:20:31;;;;;;;2.28;1.75;;;;;;;;;;5013757;28;20412;-81
2022/09/27 14:22:58;;;;;;;3.30;2.03;;;;;;;;;;5014896;28;20033;-81
2022/09/27 14:25:24;;;;;;;2.20;1.27;;;;;;;;;;5014516;28;20038;-80
2022/09/27 14:27:50;;;;;;;1.73;1.33;;;;;;;;;;4995140;28;20034;-81
2022/09/27 14:30:18;;;;;;;5.07;2.65;;;;;;;;;;4994738;28;20133;-81
2022/09/27 14:32:48;;;;;;;20.23;18.05;;;;;;;;;;4994729;28;20125;-80
2022/09/27 14:38:13;;;;;;;4.68;4.22;;;;;;;;;;4994953;28;20444;-80
2022/09/27 14:40:44;;;;;;;3.15;1.58;;;;;;;;;;4994711;28;20117;-81
2022/09/27 14:43:13;;;;;;;2.47;1.13;;;;;;;;;;4994808;28;20497;-80
2022/09/27 14:45:39;;;;;;;11.20;7.88;;;;;;;;;;4993897;28;20453;-79
2022/09/27 14:48:22;;;;;;;4.35;3.40;;;;;;;;;;4994603;28;20033;-78
2022/09/27 14:51:00;;;;;;;1.88;1.23;;;;;;;;;;4994833;28;20047;-79
2022/09/27 14:53:30;;;;;;;2.47;1.33;;;;;;;;;;4994787;28;20034;-79
2022/09/27 14:55:57;;;;;;;2.83;1.30;;;;;;;;;;4994508;28;20485;-79
2022/09/27 14:58:25;;;;;;;2.15;1.85;;;;;;;;;;4994736;28;20031;-79
2022/09/27 15:00:51;;;;;;;2.38;1.45;;;;;;;;;;4994714;28;20069;-79
2022/09/27 15:03:23;;;;;;;1.38;1.25;;;;;;;;;;4994722;28;20078;-80
2022/09/27 15:05:50;;;;;;;2.92;2.17;;;;;;;;;;4994258;28;20117;-79
2022/09/27 15:08:18;;;;;;;5.38;3.70;;;;;;;;;;4993455;28;20200;-78
2022/09/27 15:10:44;;;;;;;4.35;3.60;;;;;;;;;;4994169;28;20508;-81
2022/09/27 15:13:14;;;;;;;7.43;3.80;;;;;;;;;;4994534;28;20030;-81
2022/09/27 15:15:41;;;;;;;4.55;3.30;;;;;;;;;;4994133;28;20034;-81
2022/09/27 15:18:25;;;;;;;33.05;26.85;;;;;;;;;;4994313;28;20481;-78
2022/09/27 15:20:51;;;;;;;;;;;;;;;;;;4992691;28;20023;-81
2022/09/27 15:23:25;;;;;;;5.82;4.55;;;;;;;;;;4994183;28;19912;-80
2022/09/27 15:26:02;;;;;;;5.30;4.45;;;;;;;;;;4994227;28;20034;-80
2022/09/27 15:28:28;;;;;;;5.15;4.63;;;;;;;;;;4994014;28;20064;-81
2022/09/27 15:30:55;;;;;;;6.72;5.15;;;;;;;;;;4993502;28;20034;-80
2022/09/27 15:33:24;;;;;;;5.55;5.05;;;;;;;;;;4993607;28;20491;-80
2022/09/27 15:35:52;;;;;;;5.70;4.82;;;;;;;;;;4995487;28;20171;-80
2022/09/27 15:38:39;;;;;;;6.97;6.22;;;;;;;;;;5013862;28;20033;-80
2022/09/27 15:41:09;;;;;;;8.38;5.85;;;;;;;;;;5013332;28;20111;-81